• Join FlightAware (Why Join?)
  • Login
  • US Flag 
04:53AM EDT


 

Airport Tracker/Info


-or-


 

Live Flight TrackerFlight Track Log ✈ EJA831 ✈ 03-Dec-2013 ✈ KADS - KMEM

Flight Track Log - Related Links

Times and Time Zones

All times are in EST time to prevent confusion due to time zone crossing. See the EJA831 flight status page for this flight to view local times or setup timezone preferences in your user account.

Time Position Orientation Groundspeed Altitude Reporting Facility
EST Latitude Longitude Course Direction KTS MPH feet Rate Location/Type
01:16PM 32.9667 -96.8333 107° East 155 178 1,100  Level Dallas / Fort Worth TRACON
01:18PM 32.9500 -96.7667 107° East 227 261 3,400 2,100 Climbing Dallas / Fort Worth TRACON
01:20PM 32.9117 -96.5844 104° East 295 339 8,300 2,100 Climbing Fort Worth Center
01:21PM 32.8881 -96.4578 102° East 322 371 10,300 2,040 Climbing Fort Worth Center
01:22PM 32.8678 -96.3414 102° East 347 399 12,600 2,280 Climbing Fort Worth Center
01:23PM 32.8681 -96.2189 90° East 367 422 15,100 2,400 Climbing Fort Worth Center
01:24PM 32.8708 -96.0950 88° East 373 429 17,600 2,520 Climbing Fort Worth Center
01:25PM 32.8814 -95.9744 84° East 370 426 20,400 2,280 Climbing Fort Worth Center
01:26PM 32.8983 -95.8508 81° East 375 432 22,400 1,980 Climbing Fort Worth Center
01:27PM 32.9183 -95.6917 81° East 401 461 24,500 1,740 Climbing Fort Worth Center
01:28PM 32.9364 -95.5547 81° East 417 480 26,000 1,380 Climbing Fort Worth Center
01:29PM 32.9547 -95.4122 81° East 433 498 27,400 1,380 Climbing Fort Worth Center
01:30PM 32.9722 -95.2658 82° East 444 511 28,900 1,560 Climbing Fort Worth Center
01:31PM 32.9900 -95.1172 82° East 452 520 30,700 1,740 Climbing Fort Worth Center
01:32PM 33.0117 -94.9383 82° East 454 522 32,600 1,860 Climbing Fort Worth Center
01:33PM 33.0283 -94.7892 82° East 456 525 34,600 1,140 Climbing Fort Worth Center
01:34PM 33.0489 -94.6369 81° East 462 532 35,000 180 Climbing Fort Worth Center
01:35PM 33.0683 -94.4708 82° East 505 581 35,000  Level Fort Worth Center
01:36PM 33.0897 -94.2756 82° East 523 602 35,000  Level Fort Worth Center
01:37PM 33.1100 -94.1031 82° East 526 605 35,000  Level Fort Worth Center
01:38PM 33.1292 -93.9231 83° East 512 589 35,000  Level Fort Worth Center
01:40PM 33.1478 -93.7569 82° East 508 585 35,000  Level Fort Worth Center
01:41PM 33.1656 -93.5894 83° East 510 587 35,000  Level Fort Worth Center
01:42PM 33.1861 -93.4081 82° East 512 589 35,000  Level Fort Worth Center
01:43PM 33.2036 -93.2406 83° East 510 587 35,000  Level Fort Worth Center
01:44PM 33.2228 -93.0600 83° East 511 588 35,000  Level Fort Worth Center
01:45PM 33.2408 -92.9058 82° East 508 585 35,000  Level Fort Worth Center
01:46PM 33.2689 -92.7411 78° East 507 583 35,000  Level Fort Worth Center
01:47PM 33.3383 -92.6044 59° Northeast 492 566 35,000  Level Fort Worth Center
01:48PM 33.4281 -92.4511 55° Northeast 475 547 35,000  Level Fort Worth Center
01:49PM 33.4936 -92.3372 55° Northeast 473 544 35,000  Level Fort Worth Center
01:50PM 33.5675 -92.2072 56° Northeast 475 547 35,000  Level Fort Worth Center
01:51PM 33.6422 -92.0772 55° Northeast 471 542 35,000  Level Memphis Center
01:52PM 33.7214 -91.9386 55° Northeast 474 545 35,000  Level Memphis Center
01:53PM 33.7953 -91.8097 55° Northeast 472 543 35,000 -420 Level Memphis Center
01:54PM 33.8739 -91.6700 56° Northeast 473 544 34,200 -1,260 Descending Memphis Center
01:55PM 33.9658 -91.5206 53° Northeast 472 543 32,400 -1,620 Descending Memphis Center
01:56PM 34.0511 -91.4042 48° Northeast 463 533 30,900 -1,500 Descending Memphis Center
01:57PM 34.1328 -91.2914 49° Northeast 450 518 29,300 -1,680 Descending Memphis Center
01:58PM 34.2161 -91.1756 49° Northeast 450 518 27,500 -2,400 Descending Memphis Center
01:59PM 34.3011 -91.0581 49° Northeast 458 527 24,400 -3,240 Descending Memphis Center
02:00PM 34.3800 -90.9492 49° Northeast 436 502 20,900 -3,600 Descending Memphis Center
02:01PM 34.4542 -90.8433 50° Northeast 415 478 17,100 -3,480 Descending Memphis Center
02:02PM 34.5281 -90.7414 49° Northeast 404 465 13,800 -2,760 Descending Memphis Center
02:03PM 34.5919 -90.6500 50° Northeast 366 421 11,400 -1,860 Descending Memphis Center
02:04PM 34.6594 -90.5433 52° Northeast 342 394 10,000 -720 Descending Memphis Center
02:05PM 34.7192 -90.4500 52° Northeast 342 394 10,000  Level Memphis Center
02:06PM 34.7822 -90.3531 52° Northeast 356 410 10,000  Level Memphis Center
02:07PM 34.8436 -90.2550 53° Northeast 359 413 10,000  Level Memphis Center
02:08PM 34.9053 -90.1586 52° Northeast 357 411 10,000 -120 Level Memphis Center
02:09PM 34.9500 -90.1167 38° Northeast 314 361 9,900 -1,200 Descending KMEM
02:10PM 35.0500 -90.1000 North 281 323 7,900 -2,040 Descending KMEM
02:11PM 35.1167 -90.1000 360° North 281 323 5,900 -2,820 Descending KMEM
02:12PM 35.1833 -90.1167 348° North 280 322 2,900 -1,980 Descending KMEM
02:13PM 35.2333 -90.0667 39° Northeast 219 252 2,000 -480 Descending KMEM
02:14PM 35.2333 -90.0000 90° East 217 250 2,000  Level KMEM
02:15PM 35.1667 -89.9833 168° South 205 236 2,000 -180 Level KMEM
02:16PM 35.1167 -89.9833 180° South 175 201 1,700 -480 Descending KMEM
02:17PM 35.0833 -89.9833 180° South 101 116 1,000 -660 Descending KMEM